»·PEaware :: SWA3235 KLAS-KRNO

SWA3235 :: KLAS-KRNO

FLIGHT INFORMATION

Flight Status: Arrived
Operator:
Southwest Airlines
More flights by this operator :: More flights under this callsign
Pilot: Colin A. (19898)
Aircraft: BOEING 737-700
(B737)
More flights by this aircraft type
Origin: KLAS McCarran Intl
United States
Destination: KRNO Reno/Tahoe Intl
United States
More flights between these airports :: More routes between these airports
Route: +SHEAD1 KENNO +RUSME KENNO2
File this flight plan on PilotEdge
Remarks: RMK / SIMBRIEF
Altitude:
(Current/Filed)
38,000ft
Speed:
(Current/Filed)
441kts
Departed: 09-Mar-19 09:16 PM
Arrived: 09-Mar-19 10:12 PM
Distance/Time
Traveled:
300nm/0:56
Distance/Time
To Go:
Arrived

Flight Plot

Page will automatically refresh every two minutes.

Flight plan parsing failed; only flown route is shown


Map Options




Map Legend


Flown Route
Filed Route
Departure Airport
Arrival Airport
Navaid (VOR, NDB)
Fix

Horizontal Profiles

Position Reports

Time Latitude Longitude Heading Altitude Ground
Speed
09-Mar-19 20:55 36.079886 -115.147072 56 2188ft 0kts
09-Mar-19 20:56 36.079886 -115.147072 56 2188ft 0kts
09-Mar-19 20:57 36.079886 -115.147072 56 2188ft 0kts
09-Mar-19 20:58 36.079886 -115.147072 56 2188ft 0kts
09-Mar-19 20:59 36.079886 -115.147072 56 2188ft 0kts
09-Mar-19 21:00 36.079886 -115.147072 56 2188ft 0kts
09-Mar-19 21:01 36.079886 -115.147072 56 2188ft 0kts
09-Mar-19 21:02 36.079886 -115.147072 56 2188ft 0kts
09-Mar-19 21:03 36.079886 -115.147072 56 2188ft 0kts
09-Mar-19 21:04 36.079886 -115.147072 56 2188ft 0kts
09-Mar-19 21:05 36.079770 -115.147288 56 2188ft 2kts
09-Mar-19 21:06 36.079411 -115.147951 56 2188ft 1kts
09-Mar-19 21:07 36.079387 -115.147995 56 2188ft 0kts
09-Mar-19 21:08 36.079388 -115.147993 56 2188ft 0kts
09-Mar-19 21:09 36.079389 -115.147991 56 2188ft 0kts
09-Mar-19 21:10 36.077878 -115.146680 37 2188ft 3kts
09-Mar-19 21:11 36.078280 -115.140104 89 2188ft 24kts
09-Mar-19 21:12 36.078298 -115.132972 88 2188ft 16kts
09-Mar-19 21:13 36.078307 -115.126635 90 2188ft 15kts
09-Mar-19 21:14 36.077547 -115.121548 140 2188ft 0kts
09-Mar-19 21:15 36.076405 -115.128497 270 2189ft 101kts
09-Mar-19 21:16 36.076334 -115.187655 268 4227ft 184kts
09-Mar-19 21:17 36.064802 -115.258758 220 5742ft 244kts
09-Mar-19 21:18 36.000799 -115.287947 199 7010ft 259kts
09-Mar-19 21:19 35.939450 -115.339522 223 8617ft 274kts
09-Mar-19 21:20 35.890278 -115.411474 252 9053ft 279kts
09-Mar-19 21:21 35.887697 -115.512595 269 11011ft 328kts
09-Mar-19 21:22 35.890045 -115.627523 269 11353ft 335kts
09-Mar-19 21:23 35.892245 -115.743108 268 13359ft 337kts
09-Mar-19 21:24 35.894057 -115.858993 267 15819ft 338kts
09-Mar-19 21:25 35.908023 -115.974340 295 18840ft 367kts
09-Mar-19 21:26 35.982169 -116.069822 308 21324ft 394kts
09-Mar-19 21:27 36.063712 -116.164408 307 23464ft 409kts
09-Mar-19 21:28 36.147751 -116.261814 307 25358ft 422kts
09-Mar-19 21:29 36.234656 -116.361991 307 27029ft 432kts
09-Mar-19 21:30 36.323231 -116.464893 306 28530ft 440kts
09-Mar-19 21:31 36.413354 -116.570251 305 29788ft 449kts
09-Mar-19 21:32 36.503946 -116.676269 305 31519ft 441kts
09-Mar-19 21:33 36.599009 -116.774428 315 32936ft 456kts
09-Mar-19 21:34 36.707121 -116.856718 316 34259ft 453kts
09-Mar-19 21:35 36.814269 -116.938453 316 35322ft 452kts
09-Mar-19 21:36 36.921744 -117.020431 317 36303ft 451kts
09-Mar-19 21:37 37.028559 -117.102191 317 37130ft 451kts
09-Mar-19 21:38 37.135685 -117.184458 317 37868ft 452kts
09-Mar-19 21:39 37.242393 -117.266994 317 37876ft 450kts
09-Mar-19 21:40 37.343078 -117.357439 308 37874ft 439kts
09-Mar-19 21:41 37.436382 -117.457871 309 37870ft 440kts
09-Mar-19 21:42 37.529597 -117.558165 309 37868ft 443kts
09-Mar-19 21:43 37.634472 -117.645219 318 37868ft 455kts
09-Mar-19 21:44 37.742589 -117.729204 318 37873ft 455kts
09-Mar-19 21:45 37.850412 -117.813345 318 37874ft 455kts
09-Mar-19 21:46 37.958244 -117.897321 319 37876ft 456kts
09-Mar-19 21:47 38.066141 -117.981862 318 37881ft 456kts
09-Mar-19 21:48 38.173954 -118.066542 318 37885ft 456kts
09-Mar-19 21:49 38.281630 -118.151569 318 37893ft 456kts
09-Mar-19 21:50 38.389421 -118.237143 318 36992ft 452kts
09-Mar-19 21:51 38.481969 -118.338873 305 34286ft 437kts
09-Mar-19 21:52 38.569029 -118.446556 304 31800ft 428kts
09-Mar-19 21:53 38.652860 -118.550729 303 29776ft 412kts
09-Mar-19 21:54 38.733524 -118.651261 305 27765ft 400kts
09-Mar-19 21:55 38.812904 -118.750064 306 25684ft 393kts
09-Mar-19 21:56 38.890737 -118.846783 308 23765ft 385kts
09-Mar-19 21:57 38.966972 -118.942254 309 21810ft 380kts
09-Mar-19 21:59 39.042387 -119.037151 310 19847ft 377kts
09-Mar-19 22:00 39.116629 -119.130611 312 17898ft 371kts
09-Mar-19 22:01 39.190133 -119.223577 312 16068ft 364kts
09-Mar-19 22:02 39.260272 -119.312051 312 14554ft 343kts
09-Mar-19 22:03 39.324764 -119.393917 312 13197ft 308kts
09-Mar-19 22:04 39.388952 -119.463682 322 11865ft 289kts
09-Mar-19 22:05 39.451456 -119.519541 324 10603ft 267kts
09-Mar-19 22:06 39.510312 -119.572816 331 9171ft 246kts
09-Mar-19 22:07 39.565254 -119.621530 323 8870ft 243kts
09-Mar-19 22:08 39.591795 -119.692558 274 7853ft 221kts
09-Mar-19 22:09 39.583705 -119.760030 207 6807ft 193kts
09-Mar-19 22:10 39.535187 -119.769061 179 5040ft 163kts
09-Mar-19 22:11 39.500280 -119.769264 181 4422ft 45kts
09-Mar-19 22:12 39.497839 -119.770023 269 4422ft 0kts
09-Mar-19 22:13 39.501309 -119.770646 359 4422ft 25kts
09-Mar-19 22:14 39.504371 -119.771876 271 4422ft 17kts
09-Mar-19 22:15 39.505082 -119.773739 0 4422ft 1kts
09-Mar-19 22:16 39.505108 -119.773739 0 4422ft 0kts
09-Mar-19 22:17 39.505108 -119.773739 0 4422ft 0kts
09-Mar-19 22:18 39.505108 -119.773739 0 4422ft 0kts
09-Mar-19 22:18 39.505108 -119.773739 0 4422ft 0kts

Navigation Log

Ident Type
Flight plan parsing failed, navigation log unavailable